Terminal Aerodrome Forecast
Issued by NWS Greer, SC

Current Version | Previous Version | Text Only | Print | Product List | Glossary On
Versions: 1 2 3 4 5 6 7 8 9 10 11 12 13 14 15 16 17 18 19 20 21 22 23 24 25 26 27 28 29
000
FTUS42 KGSP 260706 AAB
TAFGSP
TAF AMD
KGSP 260706Z 2607/2706 17003KT P6SM -SHRA SCT005 OVC010
      TEMPO 2607/2609 3SM SHRA BR OVC005
     FM260900 21003KT 4SM BR VCSH OVC003
     FM261300 20005KT 6SM BR OVC007
     FM261500 21006KT P6SM OVC015
     FM261700 20007KT P6SM VCSH SCT025 BKN050 PROB30 2619/2624 4SM
      -TSRA OVC025CB
     FM270000 20006KT P6SM VCSH BKN050=

USA.gov is the U.S. government's official web portal to all federal, state and local government web resources and services.